sensor_id;sensor_type;location;lat;lon;timestamp;P1;durP1;ratioP1;P2;durP2;ratioP2
73841;SDS011;62184;52.006;5.924;2022-10-16T00:01:06;9.10;;;4.20;;
73841;SDS011;62184;52.006;5.924;2022-10-16T00:03:33;9.02;;;3.90;;
73841;SDS011;62184;52.006;5.924;2022-10-16T00:06:01;8.07;;;4.20;;
73841;SDS011;62184;52.006;5.924;2022-10-16T00:08:28;9.68;;;4.35;;
73841;SDS011;62184;52.006;5.924;2022-10-16T00:10:59;8.77;;;4.05;;
73841;SDS011;62184;52.006;5.924;2022-10-16T00:13:28;10.43;;;4.50;;
73841;SDS011;62184;52.006;5.924;2022-10-16T00:15:57;10.30;;;4.47;;
73841;SDS011;62184;52.006;5.924;2022-10-16T00:18:25;8.88;;;4.50;;
73841;SDS011;62184;52.006;5.924;2022-10-16T00:20:53;10.20;;;4.50;;
73841;SDS011;62184;52.006;5.924;2022-10-16T00:23:20;9.47;;;4.30;;
73841;SDS011;62184;52.006;5.924;2022-10-16T00:25:54;9.18;;;4.78;;
73841;SDS011;62184;52.006;5.924;2022-10-16T00:28:21;9.38;;;4.20;;
73841;SDS011;62184;52.006;5.924;2022-10-16T00:30:48;8.27;;;4.35;;
73841;SDS011;62184;52.006;5.924;2022-10-16T00:33:17;10.30;;;4.60;;
73841;SDS011;62184;52.006;5.924;2022-10-16T00:35:44;8.80;;;4.43;;
73841;SDS011;62184;52.006;5.924;2022-10-16T00:38:10;10.98;;;5.18;;
73841;SDS011;62184;52.006;5.924;2022-10-16T00:40:37;9.98;;;5.25;;
73841;SDS011;62184;52.006;5.924;2022-10-16T00:43:07;11.48;;;5.00;;
73841;SDS011;62184;52.006;5.924;2022-10-16T00:45:39;10.57;;;5.18;;
73841;SDS011;62184;52.006;5.924;2022-10-16T00:48:07;9.88;;;5.70;;
73841;SDS011;62184;52.006;5.924;2022-10-16T00:50:41;11.32;;;5.43;;
73841;SDS011;62184;52.006;5.924;2022-10-16T00:53:07;11.18;;;5.78;;
73841;SDS011;62184;52.006;5.924;2022-10-16T00:55:35;11.57;;;5.60;;
73841;SDS011;62184;52.006;5.924;2022-10-16T00:58:02;10.37;;;5.50;;
73841;SDS011;62184;52.006;5.924;2022-10-16T01:00:28;8.82;;;5.15;;
73841;SDS011;62184;52.006;5.924;2022-10-16T01:02:56;11.10;;;5.45;;
73841;SDS011;62184;52.006;5.924;2022-10-16T01:05:25;9.68;;;4.93;;
73841;SDS011;62184;52.006;5.924;2022-10-16T01:08:08;10.57;;;4.95;;
73841;SDS011;62184;52.006;5.924;2022-10-16T01:10:46;8.82;;;5.00;;
73841;SDS011;62184;52.006;5.924;2022-10-16T01:13:24;9.80;;;4.72;;
73841;SDS011;62184;52.006;5.924;2022-10-16T01:15:59;11.10;;;5.15;;
73841;SDS011;62184;52.006;5.924;2022-10-16T01:18:37;8.77;;;4.50;;
73841;SDS011;62184;52.006;5.924;2022-10-16T01:21:11;9.70;;;4.72;;
73841;SDS011;62184;52.006;5.924;2022-10-16T01:23:48;10.13;;;4.87;;
73841;SDS011;62184;52.006;5.924;2022-10-16T01:26:31;10.60;;;5.20;;
73841;SDS011;62184;52.006;5.924;2022-10-16T01:29:20;11.70;;;5.30;;
73841;SDS011;62184;52.006;5.924;2022-10-16T01:32:00;9.57;;;5.05;;
73841;SDS011;62184;52.006;5.924;2022-10-16T01:34:37;9.68;;;5.15;;
73841;SDS011;62184;52.006;5.924;2022-10-16T01:37:13;9.73;;;5.00;;
73841;SDS011;62184;52.006;5.924;2022-10-16T01:39:48;11.65;;;5.63;;
73841;SDS011;62184;52.006;5.924;2022-10-16T01:42:20;11.43;;;5.40;;
73841;SDS011;62184;52.006;5.924;2022-10-16T01:44:57;9.93;;;4.97;;
73841;SDS011;62184;52.006;5.924;2022-10-16T01:47:26;9.18;;;4.90;;
73841;SDS011;62184;52.006;5.924;2022-10-16T01:49:57;9.43;;;4.80;;
73841;SDS011;62184;52.006;5.924;2022-10-16T01:52:26;9.90;;;5.33;;
73841;SDS011;62184;52.006;5.924;2022-10-16T01:54:56;11.00;;;5.47;;
73841;SDS011;62184;52.006;5.924;2022-10-16T01:57:27;10.23;;;5.20;;
73841;SDS011;62184;52.006;5.924;2022-10-16T02:00:04;9.50;;;4.97;;
73841;SDS011;62184;52.006;5.924;2022-10-16T02:02:35;8.88;;;4.53;;
73841;SDS011;62184;52.006;5.924;2022-10-16T02:05:09;9.38;;;4.72;;
73841;SDS011;62184;52.006;5.924;2022-10-16T02:07:41;8.35;;;4.40;;
73841;SDS011;62184;52.006;5.924;2022-10-16T02:10:08;9.32;;;4.75;;
73841;SDS011;62184;52.006;5.924;2022-10-16T02:12:36;8.90;;;4.60;;
73841;SDS011;62184;52.006;5.924;2022-10-16T02:15:11;7.97;;;4.88;;
73841;SDS011;62184;52.006;5.924;2022-10-16T02:17:38;9.40;;;4.38;;
73841;SDS011;62184;52.006;5.924;2022-10-16T02:20:04;8.43;;;4.88;;
73841;SDS011;62184;52.006;5.924;2022-10-16T02:22:32;9.50;;;4.80;;
73841;SDS011;62184;52.006;5.924;2022-10-16T02:25:06;10.07;;;4.60;;
73841;SDS011;62184;52.006;5.924;2022-10-16T02:27:38;8.15;;;4.68;;
73841;SDS011;62184;52.006;5.924;2022-10-16T02:30:17;8.77;;;4.70;;
73841;SDS011;62184;52.006;5.924;2022-10-16T02:32:50;7.78;;;4.68;;
73841;SDS011;62184;52.006;5.924;2022-10-16T02:35:20;9.25;;;4.80;;
73841;SDS011;62184;52.006;5.924;2022-10-16T02:37:49;8.07;;;4.67;;
73841;SDS011;62184;52.006;5.924;2022-10-16T02:40:18;7.95;;;4.32;;
73841;SDS011;62184;52.006;5.924;2022-10-16T02:42:49;8.82;;;4.22;;
73841;SDS011;62184;52.006;5.924;2022-10-16T02:45:20;8.27;;;4.18;;
73841;SDS011;62184;52.006;5.924;2022-10-16T02:47:48;8.65;;;4.43;;
73841;SDS011;62184;52.006;5.924;2022-10-16T02:50:14;7.82;;;4.50;;
73841;SDS011;62184;52.006;5.924;2022-10-16T02:52:42;8.25;;;4.25;;
73841;SDS011;62184;52.006;5.924;2022-10-16T02:55:08;7.68;;;4.20;;
73841;SDS011;62184;52.006;5.924;2022-10-16T02:57:35;7.90;;;4.50;;
73841;SDS011;62184;52.006;5.924;2022-10-16T03:00:02;7.75;;;4.70;;
73841;SDS011;62184;52.006;5.924;2022-10-16T03:02:32;7.35;;;4.50;;
73841;SDS011;62184;52.006;5.924;2022-10-16T03:04:58;7.25;;;4.03;;
73841;SDS011;62184;52.006;5.924;2022-10-16T03:07:25;8.40;;;4.18;;
73841;SDS011;62184;52.006;5.924;2022-10-16T03:09:51;7.35;;;3.92;;
73841;SDS011;62184;52.006;5.924;2022-10-16T03:12:17;7.55;;;4.20;;
73841;SDS011;62184;52.006;5.924;2022-10-16T03:14:44;8.30;;;4.00;;
73841;SDS011;62184;52.006;5.924;2022-10-16T03:17:10;7.55;;;4.20;;
73841;SDS011;62184;52.006;5.924;2022-10-16T03:19:39;8.00;;;4.35;;
73841;SDS011;62184;52.006;5.924;2022-10-16T03:22:06;8.07;;;3.88;;
73841;SDS011;62184;52.006;5.924;2022-10-16T03:24:32;7.55;;;3.80;;
73841;SDS011;62184;52.006;5.924;2022-10-16T03:26:58;8.23;;;4.10;;
73841;SDS011;62184;52.006;5.924;2022-10-16T03:29:25;8.85;;;4.28;;
73841;SDS011;62184;52.006;5.924;2022-10-16T03:31:51;6.75;;;3.60;;
73841;SDS011;62184;52.006;5.924;2022-10-16T03:34:17;8.38;;;3.75;;
73841;SDS011;62184;52.006;5.924;2022-10-16T03:36:46;8.52;;;3.90;;
73841;SDS011;62184;52.006;5.924;2022-10-16T03:39:13;8.70;;;4.30;;
73841;SDS011;62184;52.006;5.924;2022-10-16T03:41:39;8.23;;;4.18;;
73841;SDS011;62184;52.006;5.924;2022-10-16T03:44:06;9.00;;;4.28;;
73841;SDS011;62184;52.006;5.924;2022-10-16T03:46:33;7.53;;;3.83;;
73841;SDS011;62184;52.006;5.924;2022-10-16T03:48:59;8.38;;;4.03;;
73841;SDS011;62184;52.006;5.924;2022-10-16T03:51:25;8.43;;;4.10;;
73841;SDS011;62184;52.006;5.924;2022-10-16T03:53:54;8.10;;;3.80;;
73841;SDS011;62184;52.006;5.924;2022-10-16T03:56:21;8.87;;;3.67;;
73841;SDS011;62184;52.006;5.924;2022-10-16T03:58:47;7.82;;;3.72;;
73841;SDS011;62184;52.006;5.924;2022-10-16T04:01:15;8.18;;;3.83;;
73841;SDS011;62184;52.006;5.924;2022-10-16T04:03:41;7.80;;;4.07;;
73841;SDS011;62184;52.006;5.924;2022-10-16T04:06:07;7.43;;;4.03;;
73841;SDS011;62184;52.006;5.924;2022-10-16T04:08:34;7.90;;;4.25;;
73841;SDS011;62184;52.006;5.924;2022-10-16T04:11:03;7.60;;;3.58;;
73841;SDS011;62184;52.006;5.924;2022-10-16T04:13:30;7.38;;;3.80;;
73841;SDS011;62184;52.006;5.924;2022-10-16T04:15:56;7.80;;;3.53;;
73841;SDS011;62184;52.006;5.924;2022-10-16T04:18:23;6.65;;;3.70;;
73841;SDS011;62184;52.006;5.924;2022-10-16T04:20:49;7.13;;;3.65;;
73841;SDS011;62184;52.006;5.924;2022-10-16T04:23:16;8.35;;;3.50;;
73841;SDS011;62184;52.006;5.924;2022-10-16T04:25:42;8.18;;;3.40;;
73841;SDS011;62184;52.006;5.924;2022-10-16T04:28:11;6.47;;;3.55;;
73841;SDS011;62184;52.006;5.924;2022-10-16T04:30:37;7.10;;;4.00;;
73841;SDS011;62184;52.006;5.924;2022-10-16T04:33:04;6.60;;;3.70;;
73841;SDS011;62184;52.006;5.924;2022-10-16T04:35:31;6.55;;;3.20;;
73841;SDS011;62184;52.006;5.924;2022-10-16T04:37:57;6.30;;;3.07;;
73841;SDS011;62184;52.006;5.924;2022-10-16T04:40:24;7.45;;;3.67;;
73841;SDS011;62184;52.006;5.924;2022-10-16T04:42:50;6.40;;;3.33;;
73841;SDS011;62184;52.006;5.924;2022-10-16T04:45:19;7.30;;;3.30;;
73841;SDS011;62184;52.006;5.924;2022-10-16T04:47:46;7.18;;;3.60;;
73841;SDS011;62184;52.006;5.924;2022-10-16T04:50:12;5.95;;;3.80;;
73841;SDS011;62184;52.006;5.924;2022-10-16T04:52:38;7.38;;;3.30;;
73841;SDS011;62184;52.006;5.924;2022-10-16T04:55:05;7.25;;;4.07;;
73841;SDS011;62184;52.006;5.924;2022-10-16T04:57:33;7.55;;;3.55;;
73841;SDS011;62184;52.006;5.924;2022-10-16T04:59:59;8.70;;;3.80;;
73841;SDS011;62184;52.006;5.924;2022-10-16T05:02:28;6.40;;;3.60;;
73841;SDS011;62184;52.006;5.924;2022-10-16T05:04:55;7.10;;;3.57;;
73841;SDS011;62184;52.006;5.924;2022-10-16T05:07:21;7.03;;;3.57;;
73841;SDS011;62184;52.006;5.924;2022-10-16T05:09:48;7.38;;;3.60;;
73841;SDS011;62184;52.006;5.924;2022-10-16T05:12:14;6.75;;;3.50;;
73841;SDS011;62184;52.006;5.924;2022-10-16T05:14:40;7.60;;;3.70;;
73841;SDS011;62184;52.006;5.924;2022-10-16T05:17:07;6.55;;;3.38;;
73841;SDS011;62184;52.006;5.924;2022-10-16T05:19:36;6.25;;;3.58;;
73841;SDS011;62184;52.006;5.924;2022-10-16T05:22:02;6.90;;;3.70;;
73841;SDS011;62184;52.006;5.924;2022-10-16T05:24:29;7.28;;;3.65;;
73841;SDS011;62184;52.006;5.924;2022-10-16T05:26:56;7.40;;;3.97;;
73841;SDS011;62184;52.006;5.924;2022-10-16T05:29:23;6.97;;;4.00;;
73841;SDS011;62184;52.006;5.924;2022-10-16T05:31:50;8.15;;;4.20;;
73841;SDS011;62184;52.006;5.924;2022-10-16T05:34:17;8.93;;;4.15;;
73841;SDS011;62184;52.006;5.924;2022-10-16T05:36:46;7.65;;;3.90;;
73841;SDS011;62184;52.006;5.924;2022-10-16T05:39:13;8.32;;;3.95;;
73841;SDS011;62184;52.006;5.924;2022-10-16T05:41:41;8.77;;;4.20;;
73841;SDS011;62184;52.006;5.924;2022-10-16T05:44:07;7.97;;;3.90;;
73841;SDS011;62184;52.006;5.924;2022-10-16T05:46:34;8.00;;;4.20;;
73841;SDS011;62184;52.006;5.924;2022-10-16T05:49:00;8.30;;;4.30;;
73841;SDS011;62184;52.006;5.924;2022-10-16T05:51:27;9.73;;;4.47;;
73841;SDS011;62184;52.006;5.924;2022-10-16T05:53:56;9.47;;;4.53;;
73841;SDS011;62184;52.006;5.924;2022-10-16T05:56:22;9.88;;;5.32;;
73841;SDS011;62184;52.006;5.924;2022-10-16T05:58:48;9.68;;;4.93;;
73841;SDS011;62184;52.006;5.924;2022-10-16T06:01:15;9.02;;;4.80;;
73841;SDS011;62184;52.006;5.924;2022-10-16T06:03:44;9.43;;;4.70;;
73841;SDS011;62184;52.006;5.924;2022-10-16T06:06:11;9.63;;;4.73;;
73841;SDS011;62184;52.006;5.924;2022-10-16T06:08:40;8.80;;;4.60;;
73841;SDS011;62184;52.006;5.924;2022-10-16T06:11:12;9.30;;;4.70;;
73841;SDS011;62184;52.006;5.924;2022-10-16T06:13:41;8.85;;;5.10;;
73841;SDS011;62184;52.006;5.924;2022-10-16T06:16:08;10.00;;;4.85;;
73841;SDS011;62184;52.006;5.924;2022-10-16T06:18:35;10.90;;;4.80;;
73841;SDS011;62184;52.006;5.924;2022-10-16T06:21:06;10.25;;;4.70;;
73841;SDS011;62184;52.006;5.924;2022-10-16T06:23:34;9.57;;;4.32;;
73841;SDS011;62184;52.006;5.924;2022-10-16T06:26:04;8.63;;;4.28;;
73841;SDS011;62184;52.006;5.924;2022-10-16T06:28:35;8.88;;;4.30;;
73841;SDS011;62184;52.006;5.924;2022-10-16T06:31:02;7.97;;;4.27;;
73841;SDS011;62184;52.006;5.924;2022-10-16T06:33:30;9.88;;;5.35;;
73841;SDS011;62184;52.006;5.924;2022-10-16T06:36:00;9.47;;;4.87;;
73841;SDS011;62184;52.006;5.924;2022-10-16T06:38:27;7.60;;;4.47;;
73841;SDS011;62184;52.006;5.924;2022-10-16T06:40:53;7.85;;;4.43;;
73841;SDS011;62184;52.006;5.924;2022-10-16T06:43:20;8.95;;;4.68;;
73841;SDS011;62184;52.006;5.924;2022-10-16T06:45:52;8.82;;;4.50;;
73841;SDS011;62184;52.006;5.924;2022-10-16T06:48:19;7.25;;;4.40;;
73841;SDS011;62184;52.006;5.924;2022-10-16T06:50:54;8.30;;;4.57;;
73841;SDS011;62184;52.006;5.924;2022-10-16T06:53:22;8.60;;;4.50;;
73841;SDS011;62184;52.006;5.924;2022-10-16T06:55:49;8.60;;;4.10;;
73841;SDS011;62184;52.006;5.924;2022-10-16T06:58:15;7.13;;;4.10;;
73841;SDS011;62184;52.006;5.924;2022-10-16T07:00:42;8.88;;;4.22;;
73841;SDS011;62184;52.006;5.924;2022-10-16T07:03:11;7.10;;;4.30;;
73841;SDS011;62184;52.006;5.924;2022-10-16T07:05:39;8.10;;;4.00;;
73841;SDS011;62184;52.006;5.924;2022-10-16T07:08:05;7.22;;;4.07;;
73841;SDS011;62184;52.006;5.924;2022-10-16T07:10:32;7.32;;;3.80;;
73841;SDS011;62184;52.006;5.924;2022-10-16T07:12:59;7.00;;;3.78;;
73841;SDS011;62184;52.006;5.924;2022-10-16T07:15:26;8.00;;;3.40;;
73841;SDS011;62184;52.006;5.924;2022-10-16T07:17:53;7.47;;;3.53;;
73841;SDS011;62184;52.006;5.924;2022-10-16T07:20:22;7.25;;;3.22;;
73841;SDS011;62184;52.006;5.924;2022-10-16T07:22:48;6.85;;;3.40;;
73841;SDS011;62184;52.006;5.924;2022-10-16T07:25:14;8.07;;;3.33;;
73841;SDS011;62184;52.006;5.924;2022-10-16T07:27:41;8.40;;;3.80;;
73841;SDS011;62184;52.006;5.924;2022-10-16T07:30:08;6.97;;;3.45;;
73841;SDS011;62184;52.006;5.924;2022-10-16T07:32:35;8.57;;;3.40;;
73841;SDS011;62184;52.006;5.924;2022-10-16T07:35:01;7.63;;;3.38;;
73841;SDS011;62184;52.006;5.924;2022-10-16T07:37:31;8.48;;;3.38;;
73841;SDS011;62184;52.006;5.924;2022-10-16T07:39:57;7.50;;;3.55;;
73841;SDS011;62184;52.006;5.924;2022-10-16T07:42:23;7.80;;;3.30;;
73841;SDS011;62184;52.006;5.924;2022-10-16T07:44:50;7.28;;;3.63;;
73841;SDS011;62184;52.006;5.924;2022-10-16T07:47:16;7.17;;;3.37;;
73841;SDS011;62184;52.006;5.924;2022-10-16T07:49:43;7.37;;;3.40;;
73841;SDS011;62184;52.006;5.924;2022-10-16T07:52:09;7.90;;;3.50;;
73841;SDS011;62184;52.006;5.924;2022-10-16T07:54:38;8.17;;;3.57;;
73841;SDS011;62184;52.006;5.924;2022-10-16T07:57:04;8.25;;;3.67;;
73841;SDS011;62184;52.006;5.924;2022-10-16T07:59:31;8.38;;;3.38;;
73841;SDS011;62184;52.006;5.924;2022-10-16T08:01:57;7.80;;;3.40;;
73841;SDS011;62184;52.006;5.924;2022-10-16T08:04:23;7.20;;;3.60;;
73841;SDS011;62184;52.006;5.924;2022-10-16T08:06:50;7.10;;;3.20;;
73841;SDS011;62184;52.006;5.924;2022-10-16T08:09:16;8.07;;;3.60;;
73841;SDS011;62184;52.006;5.924;2022-10-16T08:11:45;6.97;;;3.80;;
73841;SDS011;62184;52.006;5.924;2022-10-16T08:14:11;7.15;;;3.35;;
73841;SDS011;62184;52.006;5.924;2022-10-16T08:16:38;7.72;;;3.35;;
73841;SDS011;62184;52.006;5.924;2022-10-16T08:19:04;9.03;;;3.67;;
73841;SDS011;62184;52.006;5.924;2022-10-16T08:21:31;6.57;;;3.22;;
73841;SDS011;62184;52.006;5.924;2022-10-16T08:23:57;6.68;;;3.40;;
73841;SDS011;62184;52.006;5.924;2022-10-16T08:26:23;7.25;;;3.75;;
73841;SDS011;62184;52.006;5.924;2022-10-16T08:28:54;10.32;;;3.83;;
73841;SDS011;62184;52.006;5.924;2022-10-16T08:31:21;6.40;;;3.17;;
73841;SDS011;62184;52.006;5.924;2022-10-16T08:33:49;8.93;;;3.78;;
73841;SDS011;62184;52.006;5.924;2022-10-16T08:36:16;7.63;;;3.35;;
73841;SDS011;62184;52.006;5.924;2022-10-16T08:38:42;8.07;;;3.70;;
73841;SDS011;62184;52.006;5.924;2022-10-16T08:41:15;8.67;;;3.87;;
73841;SDS011;62184;52.006;5.924;2022-10-16T08:44:04;8.97;;;4.10;;
73841;SDS011;62184;52.006;5.924;2022-10-16T08:46:58;7.40;;;4.18;;
73841;SDS011;62184;52.006;5.924;2022-10-16T08:49:38;8.50;;;3.95;;
73841;SDS011;62184;52.006;5.924;2022-10-16T08:52:10;7.38;;;3.95;;
73841;SDS011;62184;52.006;5.924;2022-10-16T08:54:40;8.57;;;3.80;;
73841;SDS011;62184;52.006;5.924;2022-10-16T08:57:13;8.23;;;3.58;;
73841;SDS011;62184;52.006;5.924;2022-10-16T08:59:48;8.02;;;3.67;;
73841;SDS011;62184;52.006;5.924;2022-10-16T09:02:24;7.00;;;3.70;;
73841;SDS011;62184;52.006;5.924;2022-10-16T09:05:02;8.27;;;3.28;;
73841;SDS011;62184;52.006;5.924;2022-10-16T09:07:52;8.15;;;3.33;;
73841;SDS011;62184;52.006;5.924;2022-10-16T09:10:38;7.85;;;3.63;;
73841;SDS011;62184;52.006;5.924;2022-10-16T09:13:22;8.40;;;3.40;;
73841;SDS011;62184;52.006;5.924;2022-10-16T09:15:58;7.97;;;3.22;;
73841;SDS011;62184;52.006;5.924;2022-10-16T09:18:43;9.82;;;3.80;;
73841;SDS011;62184;52.006;5.924;2022-10-16T09:21:21;8.43;;;3.22;;
73841;SDS011;62184;52.006;5.924;2022-10-16T09:23:52;8.40;;;2.60;;
73841;SDS011;62184;52.006;5.924;2022-10-16T09:26:25;7.85;;;3.13;;
73841;SDS011;62184;52.006;5.924;2022-10-16T09:28:51;9.23;;;2.95;;
73841;SDS011;62184;52.006;5.924;2022-10-16T09:31:21;8.37;;;3.17;;
73841;SDS011;62184;52.006;5.924;2022-10-16T09:33:50;6.50;;;2.80;;
73841;SDS011;62184;52.006;5.924;2022-10-16T09:36:20;7.97;;;2.40;;
73841;SDS011;62184;52.006;5.924;2022-10-16T09:39:00;8.10;;;2.60;;
73841;SDS011;62184;52.006;5.924;2022-10-16T09:41:30;7.90;;;2.80;;
73841;SDS011;62184;52.006;5.924;2022-10-16T09:43:59;7.53;;;2.65;;
73841;SDS011;62184;52.006;5.924;2022-10-16T09:46:32;7.68;;;2.45;;
73841;SDS011;62184;52.006;5.924;2022-10-16T09:49:01;7.70;;;2.80;;
73841;SDS011;62184;52.006;5.924;2022-10-16T09:51:31;9.68;;;2.60;;
73841;SDS011;62184;52.006;5.924;2022-10-16T09:54:00;7.70;;;2.58;;
73841;SDS011;62184;52.006;5.924;2022-10-16T09:56:39;8.90;;;2.78;;
73841;SDS011;62184;52.006;5.924;2022-10-16T09:59:08;9.90;;;3.22;;
73841;SDS011;62184;52.006;5.924;2022-10-16T10:01:42;8.63;;;3.20;;
73841;SDS011;62184;52.006;5.924;2022-10-16T10:04:12;7.83;;;2.70;;
73841;SDS011;62184;52.006;5.924;2022-10-16T10:06:41;8.70;;;3.03;;
73841;SDS011;62184;52.006;5.924;2022-10-16T10:09:15;9.13;;;2.63;;
73841;SDS011;62184;52.006;5.924;2022-10-16T10:11:50;9.45;;;3.13;;
73841;SDS011;62184;52.006;5.924;2022-10-16T10:14:20;9.07;;;2.90;;
73841;SDS011;62184;52.006;5.924;2022-10-16T10:17:01;8.35;;;2.80;;
73841;SDS011;62184;52.006;5.924;2022-10-16T10:19:37;8.47;;;2.47;;
73841;SDS011;62184;52.006;5.924;2022-10-16T10:22:13;10.55;;;2.80;;
73841;SDS011;62184;52.006;5.924;2022-10-16T10:24:44;9.40;;;2.45;;
73841;SDS011;62184;52.006;5.924;2022-10-16T10:27:20;9.43;;;2.60;;
73841;SDS011;62184;52.006;5.924;2022-10-16T10:29:56;10.97;;;2.57;;
73841;SDS011;62184;52.006;5.924;2022-10-16T10:32:37;11.75;;;2.83;;
73841;SDS011;62184;52.006;5.924;2022-10-16T10:35:15;8.27;;;2.83;;
73841;SDS011;62184;52.006;5.924;2022-10-16T10:37:58;8.98;;;2.83;;
73841;SDS011;62184;52.006;5.924;2022-10-16T10:40:45;11.35;;;2.88;;
73841;SDS011;62184;52.006;5.924;2022-10-16T10:43:25;11.37;;;2.97;;
73841;SDS011;62184;52.006;5.924;2022-10-16T10:46:14;10.15;;;2.53;;
73841;SDS011;62184;52.006;5.924;2022-10-16T10:49:06;11.23;;;2.80;;
73841;SDS011;62184;52.006;5.924;2022-10-16T10:51:51;9.20;;;2.40;;
73841;SDS011;62184;52.006;5.924;2022-10-16T10:54:37;9.30;;;2.58;;
73841;SDS011;62184;52.006;5.924;2022-10-16T10:57:16;10.50;;;2.70;;
73841;SDS011;62184;52.006;5.924;2022-10-16T11:00:03;9.93;;;2.28;;
73841;SDS011;62184;52.006;5.924;2022-10-16T11:02:48;11.80;;;2.38;;
73841;SDS011;62184;52.006;5.924;2022-10-16T11:05:33;9.57;;;2.58;;
73841;SDS011;62184;52.006;5.924;2022-10-16T11:08:09;9.82;;;2.10;;
73841;SDS011;62184;52.006;5.924;2022-10-16T11:10:48;8.27;;;1.98;;
73841;SDS011;62184;52.006;5.924;2022-10-16T11:13:26;10.52;;;2.00;;
73841;SDS011;62184;52.006;5.924;2022-10-16T11:16:00;9.15;;;2.58;;
73841;SDS011;62184;52.006;5.924;2022-10-16T11:18:42;8.18;;;2.20;;
73841;SDS011;62184;52.006;5.924;2022-10-16T11:21:21;10.90;;;2.30;;
73841;SDS011;62184;52.006;5.924;2022-10-16T11:23:51;10.30;;;2.40;;
73841;SDS011;62184;52.006;5.924;2022-10-16T11:26:26;10.00;;;2.33;;
73841;SDS011;62184;52.006;5.924;2022-10-16T11:28:59;11.10;;;2.20;;
73841;SDS011;62184;52.006;5.924;2022-10-16T11:31:37;10.68;;;2.30;;
73841;SDS011;62184;52.006;5.924;2022-10-16T11:34:12;11.95;;;2.63;;
73841;SDS011;62184;52.006;5.924;2022-10-16T11:36:51;9.43;;;2.22;;
73841;SDS011;62184;52.006;5.924;2022-10-16T11:39:25;9.77;;;1.85;;
73841;SDS011;62184;52.006;5.924;2022-10-16T11:41:55;9.25;;;1.80;;
73841;SDS011;62184;52.006;5.924;2022-10-16T11:44:36;9.65;;;1.90;;
73841;SDS011;62184;52.006;5.924;2022-10-16T11:47:26;8.82;;;1.80;;
73841;SDS011;62184;52.006;5.924;2022-10-16T11:50:02;11.75;;;2.17;;
73841;SDS011;62184;52.006;5.924;2022-10-16T11:52:44;10.50;;;2.00;;
73841;SDS011;62184;52.006;5.924;2022-10-16T11:55:22;10.02;;;2.30;;
73841;SDS011;62184;52.006;5.924;2022-10-16T11:57:57;9.65;;;1.92;;
73841;SDS011;62184;52.006;5.924;2022-10-16T12:00:33;9.50;;;1.77;;
73841;SDS011;62184;52.006;5.924;2022-10-16T12:03:11;11.75;;;1.95;;
73841;SDS011;62184;52.006;5.924;2022-10-16T12:05:51;11.63;;;2.40;;
73841;SDS011;62184;52.006;5.924;2022-10-16T12:08:34;9.98;;;2.30;;
73841;SDS011;62184;52.006;5.924;2022-10-16T12:11:08;12.25;;;2.38;;
73841;SDS011;62184;52.006;5.924;2022-10-16T12:13:49;9.55;;;2.10;;
73841;SDS011;62184;52.006;5.924;2022-10-16T12:16:21;9.73;;;2.05;;
73841;SDS011;62184;52.006;5.924;2022-10-16T12:18:49;8.88;;;2.28;;
73841;SDS011;62184;52.006;5.924;2022-10-16T12:21:37;9.68;;;2.08;;
73841;SDS011;62184;52.006;5.924;2022-10-16T12:24:06;11.52;;;2.03;;
73841;SDS011;62184;52.006;5.924;2022-10-16T12:26:55;8.75;;;2.13;;
73841;SDS011;62184;52.006;5.924;2022-10-16T12:29:23;9.75;;;1.83;;
73841;SDS011;62184;52.006;5.924;2022-10-16T12:31:59;10.90;;;2.20;;
73841;SDS011;62184;52.006;5.924;2022-10-16T12:34:28;9.43;;;2.00;;
73841;SDS011;62184;52.006;5.924;2022-10-16T12:37:10;9.88;;;2.00;;
73841;SDS011;62184;52.006;5.924;2022-10-16T12:39:48;8.38;;;1.90;;
73841;SDS011;62184;52.006;5.924;2022-10-16T12:42:19;8.65;;;1.88;;
73841;SDS011;62184;52.006;5.924;2022-10-16T12:44:56;10.20;;;2.22;;
73841;SDS011;62184;52.006;5.924;2022-10-16T12:47:23;10.50;;;1.90;;
73841;SDS011;62184;52.006;5.924;2022-10-16T12:50:03;8.57;;;1.70;;
73841;SDS011;62184;52.006;5.924;2022-10-16T12:52:50;10.55;;;2.38;;
73841;SDS011;62184;52.006;5.924;2022-10-16T12:55:20;9.20;;;1.90;;
73841;SDS011;62184;52.006;5.924;2022-10-16T12:57:53;11.38;;;2.00;;
73841;SDS011;62184;52.006;5.924;2022-10-16T13:00:40;9.15;;;1.90;;
73841;SDS011;62184;52.006;5.924;2022-10-16T13:03:25;9.18;;;1.85;;
73841;SDS011;62184;52.006;5.924;2022-10-16T13:06:17;9.82;;;2.30;;
73841;SDS011;62184;52.006;5.924;2022-10-16T13:09:15;9.25;;;2.15;;
73841;SDS011;62184;52.006;5.924;2022-10-16T13:12:05;11.02;;;2.13;;
73841;SDS011;62184;52.006;5.924;2022-10-16T13:15:00;9.32;;;2.08;;
73841;SDS011;62184;52.006;5.924;2022-10-16T13:17:45;9.25;;;2.10;;
73841;SDS011;62184;52.006;5.924;2022-10-16T13:20:29;10.73;;;2.20;;
73841;SDS011;62184;52.006;5.924;2022-10-16T13:23:04;9.87;;;2.00;;
73841;SDS011;62184;52.006;5.924;2022-10-16T13:25:49;8.68;;;1.77;;
73841;SDS011;62184;52.006;5.924;2022-10-16T13:28:41;8.88;;;1.90;;
73841;SDS011;62184;52.006;5.924;2022-10-16T13:31:10;9.60;;;1.80;;
73841;SDS011;62184;52.006;5.924;2022-10-16T13:33:45;7.83;;;1.70;;
73841;SDS011;62184;52.006;5.924;2022-10-16T13:36:20;10.40;;;2.20;;
73841;SDS011;62184;52.006;5.924;2022-10-16T13:38:50;7.80;;;1.63;;
73841;SDS011;62184;52.006;5.924;2022-10-16T13:41:32;10.88;;;2.05;;
73841;SDS011;62184;52.006;5.924;2022-10-16T13:44:01;11.27;;;2.10;;
73841;SDS011;62184;52.006;5.924;2022-10-16T13:46:28;8.57;;;2.08;;
73841;SDS011;62184;52.006;5.924;2022-10-16T13:48:57;9.50;;;1.95;;
73841;SDS011;62184;52.006;5.924;2022-10-16T13:51:25;8.95;;;2.08;;
73841;SDS011;62184;52.006;5.924;2022-10-16T13:53:54;10.10;;;1.95;;
73841;SDS011;62184;52.006;5.924;2022-10-16T13:56:24;9.93;;;2.40;;
73841;SDS011;62184;52.006;5.924;2022-10-16T13:59:03;8.95;;;2.13;;
73841;SDS011;62184;52.006;5.924;2022-10-16T14:01:32;9.53;;;2.07;;
73841;SDS011;62184;52.006;5.924;2022-10-16T14:04:07;10.27;;;2.33;;
73841;SDS011;62184;52.006;5.924;2022-10-16T14:06:39;8.80;;;2.10;;
73841;SDS011;62184;52.006;5.924;2022-10-16T14:09:09;9.18;;;1.95;;
73841;SDS011;62184;52.006;5.924;2022-10-16T14:11:49;11.40;;;2.20;;
73841;SDS011;62184;52.006;5.924;2022-10-16T14:14:21;11.18;;;2.00;;
73841;SDS011;62184;52.006;5.924;2022-10-16T14:16:49;10.00;;;1.98;;
73841;SDS011;62184;52.006;5.924;2022-10-16T14:19:18;9.75;;;2.10;;
73841;SDS011;62184;52.006;5.924;2022-10-16T14:21:49;10.95;;;2.08;;
73841;SDS011;62184;52.006;5.924;2022-10-16T14:24:25;9.55;;;2.28;;
73841;SDS011;62184;52.006;5.924;2022-10-16T14:26:57;9.60;;;2.00;;
73841;SDS011;62184;52.006;5.924;2022-10-16T14:29:27;9.33;;;1.90;;
73841;SDS011;62184;52.006;5.924;2022-10-16T14:31:56;9.13;;;2.00;;
73841;SDS011;62184;52.006;5.924;2022-10-16T14:34:25;10.48;;;2.00;;
73841;SDS011;62184;52.006;5.924;2022-10-16T14:36:54;10.57;;;2.17;;
73841;SDS011;62184;52.006;5.924;2022-10-16T14:39:21;10.30;;;1.93;;
73841;SDS011;62184;52.006;5.924;2022-10-16T14:41:51;10.32;;;2.08;;
73841;SDS011;62184;52.006;5.924;2022-10-16T14:44:23;10.25;;;1.92;;
73841;SDS011;62184;52.006;5.924;2022-10-16T14:46:58;8.45;;;1.80;;
73841;SDS011;62184;52.006;5.924;2022-10-16T14:49:37;10.32;;;2.17;;
73841;SDS011;62184;52.006;5.924;2022-10-16T14:52:05;9.60;;;2.10;;
73841;SDS011;62184;52.006;5.924;2022-10-16T14:54:36;9.10;;;2.10;;
73841;SDS011;62184;52.006;5.924;2022-10-16T14:57:03;11.40;;;2.35;;
73841;SDS011;62184;52.006;5.924;2022-10-16T14:59:33;9.33;;;1.90;;
73841;SDS011;62184;52.006;5.924;2022-10-16T15:02:09;8.63;;;2.20;;
73841;SDS011;62184;52.006;5.924;2022-10-16T15:04:50;10.48;;;2.10;;
73841;SDS011;62184;52.006;5.924;2022-10-16T15:07:17;7.67;;;2.27;;
73841;SDS011;62184;52.006;5.924;2022-10-16T15:09:43;9.18;;;2.15;;
73841;SDS011;62184;52.006;5.924;2022-10-16T15:12:10;9.82;;;2.00;;